sensor_id;sensor_type;location;lat;lon;timestamp;P1;durP1;ratioP1;P2;durP2;ratioP2
32026;SDS011;18543;50.848;4.596;2023-04-02T00:08:03;0.80;;;0.80;;
32026;SDS011;18543;50.848;4.596;2023-04-02T00:10:36;1.00;;;0.90;;
32026;SDS011;18543;50.848;4.596;2023-04-02T00:13:05;0.80;;;0.80;;
32026;SDS011;18543;50.848;4.596;2023-04-02T00:15:33;0.70;;;0.70;;
32026;SDS011;18543;50.848;4.596;2023-04-02T00:18:03;0.90;;;0.90;;
32026;SDS011;18543;50.848;4.596;2023-04-02T00:20:33;0.70;;;0.70;;
32026;SDS011;18543;50.848;4.596;2023-04-02T00:23:01;0.80;;;0.80;;
32026;SDS011;18543;50.848;4.596;2023-04-02T00:25:33;0.80;;;0.80;;
32026;SDS011;18543;50.848;4.596;2023-04-02T00:28:02;0.68;;;0.68;;
32026;SDS011;18543;50.848;4.596;2023-04-02T00:30:29;1.10;;;1.00;;
32026;SDS011;18543;50.848;4.596;2023-04-02T00:32:57;0.98;;;0.88;;
32026;SDS011;18543;50.848;4.596;2023-04-02T00:35:26;0.60;;;0.60;;
32026;SDS011;18543;50.848;4.596;2023-04-02T00:37:54;0.82;;;0.82;;
32026;SDS011;18543;50.848;4.596;2023-04-02T00:40:26;0.82;;;0.82;;
32026;SDS011;18543;50.848;4.596;2023-04-02T00:42:55;0.88;;;0.88;;
32026;SDS011;18543;50.848;4.596;2023-04-02T00:45:27;0.82;;;0.82;;
32026;SDS011;18543;50.848;4.596;2023-04-02T00:47:57;0.77;;;0.77;;
32026;SDS011;18543;50.848;4.596;2023-04-02T00:53:03;0.82;;;0.82;;
32026;SDS011;18543;50.848;4.596;2023-04-02T00:55:36;1.13;;;0.80;;
32026;SDS011;18543;50.848;4.596;2023-04-02T00:58:16;0.73;;;0.70;;
32026;SDS011;18543;50.848;4.596;2023-04-02T01:00:48;0.70;;;0.70;;
32026;SDS011;18543;50.848;4.596;2023-04-02T01:05:55;1.00;;;0.88;;
32026;SDS011;18543;50.848;4.596;2023-04-02T01:11:04;0.98;;;0.75;;
32026;SDS011;18543;50.848;4.596;2023-04-02T01:13:40;0.68;;;0.68;;
32026;SDS011;18543;50.848;4.596;2023-04-02T01:18:41;0.90;;;0.90;;
32026;SDS011;18543;50.848;4.596;2023-04-02T01:21:51;0.73;;;0.73;;
32026;SDS011;18543;50.848;4.596;2023-04-02T01:24:12;1.00;;;0.80;;
32026;SDS011;18543;50.848;4.596;2023-04-02T01:29:24;0.65;;;0.65;;
32026;SDS011;18543;50.848;4.596;2023-04-02T01:31:52;0.85;;;0.80;;
32026;SDS011;18543;50.848;4.596;2023-04-02T01:34:21;0.80;;;0.80;;
32026;SDS011;18543;50.848;4.596;2023-04-02T01:37:01;0.90;;;0.90;;
32026;SDS011;18543;50.848;4.596;2023-04-02T01:39:33;0.75;;;0.70;;
32026;SDS011;18543;50.848;4.596;2023-04-02T01:42:16;0.95;;;0.90;;
32026;SDS011;18543;50.848;4.596;2023-04-02T01:44:50;0.70;;;0.70;;
32026;SDS011;18543;50.848;4.596;2023-04-02T01:47:20;0.98;;;0.98;;
32026;SDS011;18543;50.848;4.596;2023-04-02T01:49:48;0.75;;;0.75;;
32026;SDS011;18543;50.848;4.596;2023-04-02T01:52:16;0.87;;;0.83;;
32026;SDS011;18543;50.848;4.596;2023-04-02T01:54:44;0.70;;;0.70;;
32026;SDS011;18543;50.848;4.596;2023-04-02T01:57:12;0.80;;;0.80;;
32026;SDS011;18543;50.848;4.596;2023-04-02T01:59:40;0.90;;;0.90;;
32026;SDS011;18543;50.848;4.596;2023-04-02T02:02:10;1.17;;;1.00;;
32026;SDS011;18543;50.848;4.596;2023-04-02T02:04:37;1.33;;;0.90;;
32026;SDS011;18543;50.848;4.596;2023-04-02T02:07:05;0.98;;;0.90;;
32026;SDS011;18543;50.848;4.596;2023-04-02T02:09:39;0.80;;;0.80;;
32026;SDS011;18543;50.848;4.596;2023-04-02T02:12:08;0.80;;;0.80;;
32026;SDS011;18543;50.848;4.596;2023-04-02T02:14:38;0.80;;;0.80;;
32026;SDS011;18543;50.848;4.596;2023-04-02T02:17:06;0.70;;;0.70;;
32026;SDS011;18543;50.848;4.596;2023-04-02T02:19:40;0.90;;;0.90;;
32026;SDS011;18543;50.848;4.596;2023-04-02T02:22:25;1.13;;;1.00;;
32026;SDS011;18543;50.848;4.596;2023-04-02T02:24:56;0.80;;;0.80;;
32026;SDS011;18543;50.848;4.596;2023-04-02T02:29:53;0.93;;;0.93;;
32026;SDS011;18543;50.848;4.596;2023-04-02T02:32:22;0.88;;;0.88;;
32026;SDS011;18543;50.848;4.596;2023-04-02T02:35:00;0.98;;;0.88;;
32026;SDS011;18543;50.848;4.596;2023-04-02T02:37:31;1.10;;;1.00;;
32026;SDS011;18543;50.848;4.596;2023-04-02T02:40:02;1.30;;;1.00;;
32026;SDS011;18543;50.848;4.596;2023-04-02T02:42:32;0.82;;;0.82;;
32026;SDS011;18543;50.848;4.596;2023-04-02T02:45:01;0.90;;;0.90;;
32026;SDS011;18543;50.848;4.596;2023-04-02T02:47:35;0.93;;;0.90;;
32026;SDS011;18543;50.848;4.596;2023-04-02T02:50:07;1.10;;;1.00;;
32026;SDS011;18543;50.848;4.596;2023-04-02T02:52:36;1.40;;;1.02;;
32026;SDS011;18543;50.848;4.596;2023-04-02T02:55:05;0.80;;;0.80;;
32026;SDS011;18543;50.848;4.596;2023-04-02T02:57:37;1.10;;;1.00;;
32026;SDS011;18543;50.848;4.596;2023-04-02T03:00:06;1.58;;;1.10;;
32026;SDS011;18543;50.848;4.596;2023-04-02T03:02:35;0.90;;;0.90;;
32026;SDS011;18543;50.848;4.596;2023-04-02T03:05:04;1.00;;;0.95;;
32026;SDS011;18543;50.848;4.596;2023-04-02T03:07:32;0.90;;;0.90;;
32026;SDS011;18543;50.848;4.596;2023-04-02T03:10:02;1.08;;;0.98;;
32026;SDS011;18543;50.848;4.596;2023-04-02T03:22:35;0.90;;;0.90;;
32026;SDS011;18543;50.848;4.596;2023-04-02T03:25:27;1.02;;;0.90;;
32026;SDS011;18543;50.848;4.596;2023-04-02T03:27:52;0.88;;;0.80;;
32026;SDS011;18543;50.848;4.596;2023-04-02T03:30:26;1.15;;;1.05;;
32026;SDS011;18543;50.848;4.596;2023-04-02T03:32:57;1.10;;;1.00;;
32026;SDS011;18543;50.848;4.596;2023-04-02T03:35:28;1.30;;;1.20;;
32026;SDS011;18543;50.848;4.596;2023-04-02T03:37:59;1.13;;;1.05;;
32026;SDS011;18543;50.848;4.596;2023-04-02T03:40:30;1.08;;;1.05;;
32026;SDS011;18543;50.848;4.596;2023-04-02T03:45:44;2.00;;;1.08;;
32026;SDS011;18543;50.848;4.596;2023-04-02T03:48:35;1.50;;;1.25;;
32026;SDS011;18543;50.848;4.596;2023-04-02T03:53:37;1.02;;;1.00;;
32026;SDS011;18543;50.848;4.596;2023-04-02T03:56:05;1.58;;;1.00;;
32026;SDS011;18543;50.848;4.596;2023-04-02T03:58:43;1.13;;;0.95;;
32026;SDS011;18543;50.848;4.596;2023-04-02T04:01:26;1.13;;;1.02;;
32026;SDS011;18543;50.848;4.596;2023-04-02T04:03:55;1.20;;;1.05;;
32026;SDS011;18543;50.848;4.596;2023-04-02T04:06:24;2.40;;;1.10;;
32026;SDS011;18543;50.848;4.596;2023-04-02T04:08:59;0.80;;;0.80;;
32026;SDS011;18543;50.848;4.596;2023-04-02T04:11:32;0.90;;;0.90;;
32026;SDS011;18543;50.848;4.596;2023-04-02T04:19:21;1.10;;;1.00;;
32026;SDS011;18543;50.848;4.596;2023-04-02T04:21:52;1.10;;;1.00;;
32026;SDS011;18543;50.848;4.596;2023-04-02T04:24:23;1.30;;;1.20;;
32026;SDS011;18543;50.848;4.596;2023-04-02T04:35:07;1.00;;;0.90;;
32026;SDS011;18543;50.848;4.596;2023-04-02T04:37:41;0.95;;;0.95;;
32026;SDS011;18543;50.848;4.596;2023-04-02T04:40:19;1.15;;;1.05;;
32026;SDS011;18543;50.848;4.596;2023-04-02T04:42:49;0.80;;;0.80;;
32026;SDS011;18543;50.848;4.596;2023-04-02T04:47:56;1.45;;;1.00;;
32026;SDS011;18543;50.848;4.596;2023-04-02T04:50:30;1.00;;;1.00;;
32026;SDS011;18543;50.848;4.596;2023-04-02T04:53:03;1.10;;;1.00;;
32026;SDS011;18543;50.848;4.596;2023-04-02T05:03:28;1.48;;;1.08;;
32026;SDS011;18543;50.848;4.596;2023-04-02T05:06:00;1.10;;;1.00;;
32026;SDS011;18543;50.848;4.596;2023-04-02T05:08:31;1.02;;;1.00;;
32026;SDS011;18543;50.848;4.596;2023-04-02T05:11:01;1.20;;;1.10;;
32026;SDS011;18543;50.848;4.596;2023-04-02T05:18:35;0.85;;;0.85;;
32026;SDS011;18543;50.848;4.596;2023-04-02T05:21:05;1.10;;;1.00;;
32026;SDS011;18543;50.848;4.596;2023-04-02T05:23:36;1.33;;;1.10;;
32026;SDS011;18543;50.848;4.596;2023-04-02T05:26:06;1.20;;;1.10;;
32026;SDS011;18543;50.848;4.596;2023-04-02T05:31:06;1.25;;;1.15;;
32026;SDS011;18543;50.848;4.596;2023-04-02T05:33:37;1.15;;;1.13;;
32026;SDS011;18543;50.848;4.596;2023-04-02T05:38:37;1.10;;;1.10;;
32026;SDS011;18543;50.848;4.596;2023-04-02T05:44:02;1.10;;;1.10;;
32026;SDS011;18543;50.848;4.596;2023-04-02T05:46:35;1.38;;;1.20;;
32026;SDS011;18543;50.848;4.596;2023-04-02T05:49:03;1.23;;;1.13;;
32026;SDS011;18543;50.848;4.596;2023-04-02T05:51:42;1.33;;;1.20;;
32026;SDS011;18543;50.848;4.596;2023-04-02T05:54:17;1.17;;;1.08;;
32026;SDS011;18543;50.848;4.596;2023-04-02T05:56:49;1.23;;;1.10;;
32026;SDS011;18543;50.848;4.596;2023-04-02T05:59:25;1.00;;;1.00;;
32026;SDS011;18543;50.848;4.596;2023-04-02T06:02:05;1.38;;;1.27;;
32026;SDS011;18543;50.848;4.596;2023-04-02T06:04:35;1.30;;;1.20;;
32026;SDS011;18543;50.848;4.596;2023-04-02T06:07:10;1.30;;;1.20;;
32026;SDS011;18543;50.848;4.596;2023-04-02T06:09:42;1.38;;;1.25;;
32026;SDS011;18543;50.848;4.596;2023-04-02T06:14:41;1.25;;;1.15;;
32026;SDS011;18543;50.848;4.596;2023-04-02T06:17:16;1.33;;;1.23;;
32026;SDS011;18543;50.848;4.596;2023-04-02T06:19:44;1.30;;;1.20;;
32026;SDS011;18543;50.848;4.596;2023-04-02T06:22:23;1.10;;;1.10;;
32026;SDS011;18543;50.848;4.596;2023-04-02T06:24:54;1.10;;;1.00;;
32026;SDS011;18543;50.848;4.596;2023-04-02T06:27:22;1.00;;;1.00;;
32026;SDS011;18543;50.848;4.596;2023-04-02T06:29:51;1.40;;;1.30;;
32026;SDS011;18543;50.848;4.596;2023-04-02T06:32:22;1.23;;;1.13;;
32026;SDS011;18543;50.848;4.596;2023-04-02T06:34:52;1.23;;;1.17;;
32026;SDS011;18543;50.848;4.596;2023-04-02T06:37:29;1.35;;;1.20;;
32026;SDS011;18543;50.848;4.596;2023-04-02T06:39:57;1.48;;;1.35;;
32026;SDS011;18543;50.848;4.596;2023-04-02T06:42:30;1.20;;;1.10;;
32026;SDS011;18543;50.848;4.596;2023-04-02T06:45:00;1.25;;;1.15;;
32026;SDS011;18543;50.848;4.596;2023-04-02T06:47:38;1.23;;;1.10;;
32026;SDS011;18543;50.848;4.596;2023-04-02T06:57:45;1.20;;;1.10;;
32026;SDS011;18543;50.848;4.596;2023-04-02T07:02:49;1.30;;;1.20;;
32026;SDS011;18543;50.848;4.596;2023-04-02T07:05:18;1.27;;;1.17;;
32026;SDS011;18543;50.848;4.596;2023-04-02T07:07:45;1.77;;;1.10;;
32026;SDS011;18543;50.848;4.596;2023-04-02T07:10:13;1.45;;;1.23;;
32026;SDS011;18543;50.848;4.596;2023-04-02T07:12:40;1.40;;;1.30;;
32026;SDS011;18543;50.848;4.596;2023-04-02T07:15:09;1.50;;;1.10;;
32026;SDS011;18543;50.848;4.596;2023-04-02T07:17:37;1.30;;;1.20;;
32026;SDS011;18543;50.848;4.596;2023-04-02T07:20:04;1.40;;;1.30;;
32026;SDS011;18543;50.848;4.596;2023-04-02T07:22:32;1.45;;;1.35;;
32026;SDS011;18543;50.848;4.596;2023-04-02T07:24:59;1.27;;;1.17;;
32026;SDS011;18543;50.848;4.596;2023-04-02T07:27:26;1.10;;;0.98;;
32026;SDS011;18543;50.848;4.596;2023-04-02T07:29:54;1.43;;;1.33;;
32026;SDS011;18543;50.848;4.596;2023-04-02T07:32:21;1.67;;;1.30;;
32026;SDS011;18543;50.848;4.596;2023-04-02T07:34:48;1.40;;;1.30;;
32026;SDS011;18543;50.848;4.596;2023-04-02T07:37:15;1.30;;;1.20;;
32026;SDS011;18543;50.848;4.596;2023-04-02T07:39:43;1.30;;;1.20;;
32026;SDS011;18543;50.848;4.596;2023-04-02T07:42:10;1.40;;;1.30;;
32026;SDS011;18543;50.848;4.596;2023-04-02T07:44:37;1.85;;;1.30;;
32026;SDS011;18543;50.848;4.596;2023-04-02T07:47:04;1.33;;;1.23;;
32026;SDS011;18543;50.848;4.596;2023-04-02T07:49:33;1.40;;;1.30;;
32026;SDS011;18543;50.848;4.596;2023-04-02T07:52:00;1.35;;;1.25;;
32026;SDS011;18543;50.848;4.596;2023-04-02T07:54:28;1.40;;;1.30;;
32026;SDS011;18543;50.848;4.596;2023-04-02T07:56:55;1.40;;;1.30;;
32026;SDS011;18543;50.848;4.596;2023-04-02T07:59:25;1.20;;;1.20;;
32026;SDS011;18543;50.848;4.596;2023-04-02T08:01:52;1.40;;;1.30;;
32026;SDS011;18543;50.848;4.596;2023-04-02T08:04:20;1.67;;;1.57;;
32026;SDS011;18543;50.848;4.596;2023-04-02T08:06:49;1.30;;;1.20;;
32026;SDS011;18543;50.848;4.596;2023-04-02T08:09:18;1.30;;;1.20;;
32026;SDS011;18543;50.848;4.596;2023-04-02T08:11:45;1.30;;;1.20;;
32026;SDS011;18543;50.848;4.596;2023-04-02T08:14:12;1.40;;;1.30;;
32026;SDS011;18543;50.848;4.596;2023-04-02T08:16:44;1.27;;;1.17;;
32026;SDS011;18543;50.848;4.596;2023-04-02T08:19:12;1.35;;;1.25;;
32026;SDS011;18543;50.848;4.596;2023-04-02T08:21:39;1.45;;;1.30;;
32026;SDS011;18543;50.848;4.596;2023-04-02T08:24:07;1.30;;;1.20;;
32026;SDS011;18543;50.848;4.596;2023-04-02T08:26:34;1.20;;;1.10;;
32026;SDS011;18543;50.848;4.596;2023-04-02T08:29:01;1.40;;;1.30;;
32026;SDS011;18543;50.848;4.596;2023-04-02T08:31:29;1.33;;;1.20;;
32026;SDS011;18543;50.848;4.596;2023-04-02T08:33:56;1.80;;;1.33;;
32026;SDS011;18543;50.848;4.596;2023-04-02T08:36:26;1.23;;;1.20;;
32026;SDS011;18543;50.848;4.596;2023-04-02T08:38:55;1.20;;;1.10;;
32026;SDS011;18543;50.848;4.596;2023-04-02T08:41:23;1.60;;;1.50;;
32026;SDS011;18543;50.848;4.596;2023-04-02T08:46:37;1.50;;;1.40;;
32026;SDS011;18543;50.848;4.596;2023-04-02T08:49:10;1.40;;;1.30;;
32026;SDS011;18543;50.848;4.596;2023-04-02T08:51:38;1.33;;;1.23;;
32026;SDS011;18543;50.848;4.596;2023-04-02T08:56:43;1.40;;;1.30;;
32026;SDS011;18543;50.848;4.596;2023-04-02T08:59:19;1.50;;;1.40;;
32026;SDS011;18543;50.848;4.596;2023-04-02T09:01:52;1.48;;;1.38;;
32026;SDS011;18543;50.848;4.596;2023-04-02T09:04:22;1.20;;;1.10;;
32026;SDS011;18543;50.848;4.596;2023-04-02T09:06:51;1.30;;;1.20;;
32026;SDS011;18543;50.848;4.596;2023-04-02T09:09:19;1.27;;;1.13;;
32026;SDS011;18543;50.848;4.596;2023-04-02T09:11:53;1.35;;;1.25;;
32026;SDS011;18543;50.848;4.596;2023-04-02T09:14:34;1.77;;;1.48;;
32026;SDS011;18543;50.848;4.596;2023-04-02T09:17:22;1.63;;;1.52;;
32026;SDS011;18543;50.848;4.596;2023-04-02T09:20:13;1.40;;;1.30;;
32026;SDS011;18543;50.848;4.596;2023-04-02T09:22:38;1.30;;;1.20;;
32026;SDS011;18543;50.848;4.596;2023-04-02T09:25:10;1.40;;;1.30;;
32026;SDS011;18543;50.848;4.596;2023-04-02T09:27:38;1.40;;;1.30;;
32026;SDS011;18543;50.848;4.596;2023-04-02T09:35:16;1.25;;;1.20;;
32026;SDS011;18543;50.848;4.596;2023-04-02T09:38:37;1.50;;;1.40;;
32026;SDS011;18543;50.848;4.596;2023-04-02T09:41:00;1.38;;;1.27;;
32026;SDS011;18543;50.848;4.596;2023-04-02T09:45:55;1.50;;;1.40;;
32026;SDS011;18543;50.848;4.596;2023-04-02T09:56:09;1.40;;;1.30;;
32026;SDS011;18543;50.848;4.596;2023-04-02T09:58:37;1.30;;;1.20;;
32026;SDS011;18543;50.848;4.596;2023-04-02T10:01:04;2.00;;;1.55;;
32026;SDS011;18543;50.848;4.596;2023-04-02T10:03:33;1.40;;;1.30;;
32026;SDS011;18543;50.848;4.596;2023-04-02T10:06:06;1.50;;;1.40;;
32026;SDS011;18543;50.848;4.596;2023-04-02T10:08:34;1.33;;;1.23;;
32026;SDS011;18543;50.848;4.596;2023-04-02T10:11:03;1.38;;;1.27;;
32026;SDS011;18543;50.848;4.596;2023-04-02T10:16:09;1.63;;;1.52;;
32026;SDS011;18543;50.848;4.596;2023-04-02T10:21:16;1.17;;;1.17;;
32026;SDS011;18543;50.848;4.596;2023-04-02T10:23:44;1.70;;;1.23;;
32026;SDS011;18543;50.848;4.596;2023-04-02T10:31:25;1.40;;;1.30;;
32026;SDS011;18543;50.848;4.596;2023-04-02T10:33:57;1.42;;;1.33;;
32026;SDS011;18543;50.848;4.596;2023-04-02T10:39:04;1.40;;;1.30;;
32026;SDS011;18543;50.848;4.596;2023-04-02T10:44:10;1.38;;;1.27;;
32026;SDS011;18543;50.848;4.596;2023-04-02T10:55:16;1.20;;;1.10;;
32026;SDS011;18543;50.848;4.596;2023-04-02T10:57:43;1.33;;;1.23;;
32026;SDS011;18543;50.848;4.596;2023-04-02T11:07:52;1.55;;;1.27;;
32026;SDS011;18543;50.848;4.596;2023-04-02T11:10:21;1.33;;;1.23;;
32026;SDS011;18543;50.848;4.596;2023-04-02T11:12:50;1.30;;;1.20;;
32026;SDS011;18543;50.848;4.596;2023-04-02T11:15:18;2.00;;;1.40;;
32026;SDS011;18543;50.848;4.596;2023-04-02T11:17:46;1.48;;;1.30;;
32026;SDS011;18543;50.848;4.596;2023-04-02T11:23:04;1.23;;;1.15;;
32026;SDS011;18543;50.848;4.596;2023-04-02T11:25:34;1.52;;;1.20;;
32026;SDS011;18543;50.848;4.596;2023-04-02T11:28:19;1.20;;;1.10;;
32026;SDS011;18543;50.848;4.596;2023-04-02T11:30:52;1.52;;;1.33;;
32026;SDS011;18543;50.848;4.596;2023-04-02T11:36:01;1.20;;;1.10;;
32026;SDS011;18543;50.848;4.596;2023-04-02T11:41:11;1.23;;;1.13;;
32026;SDS011;18543;50.848;4.596;2023-04-02T11:48:43;1.05;;;0.95;;
32026;SDS011;18543;50.848;4.596;2023-04-02T11:51:53;1.30;;;1.20;;
32026;SDS011;18543;50.848;4.596;2023-04-02T11:54:01;1.40;;;1.23;;
32026;SDS011;18543;50.848;4.596;2023-04-02T11:56:38;1.10;;;1.10;;
32026;SDS011;18543;50.848;4.596;2023-04-02T12:06:54;0.90;;;0.90;;
32026;SDS011;18543;50.848;4.596;2023-04-02T12:09:28;1.30;;;1.20;;
32026;SDS011;18543;50.848;4.596;2023-04-02T12:11:57;1.17;;;1.08;;
32026;SDS011;18543;50.848;4.596;2023-04-02T12:17:03;1.23;;;1.13;;
32026;SDS011;18543;50.848;4.596;2023-04-02T12:19:35;1.27;;;1.17;;
32026;SDS011;18543;50.848;4.596;2023-04-02T12:22:02;1.27;;;1.17;;
32026;SDS011;18543;50.848;4.596;2023-04-02T12:24:32;1.02;;;0.90;;
32026;SDS011;18543;50.848;4.596;2023-04-02T12:27:06;1.30;;;1.20;;
32026;SDS011;18543;50.848;4.596;2023-04-02T12:29:42;1.58;;;1.23;;
32026;SDS011;18543;50.848;4.596;2023-04-02T12:32:43;1.08;;;1.08;;
32026;SDS011;18543;50.848;4.596;2023-04-02T12:35:03;1.10;;;1.10;;
32026;SDS011;18543;50.848;4.596;2023-04-02T12:37:31;1.25;;;1.15;;
32026;SDS011;18543;50.848;4.596;2023-04-02T12:39:59;1.17;;;1.07;;
32026;SDS011;18543;50.848;4.596;2023-04-02T12:42:32;1.40;;;1.10;;
32026;SDS011;18543;50.848;4.596;2023-04-02T12:45:00;2.28;;;1.15;;
32026;SDS011;18543;50.848;4.596;2023-04-02T12:47:27;1.45;;;1.27;;
32026;SDS011;18543;50.848;4.596;2023-04-02T12:49:55;1.45;;;1.10;;
32026;SDS011;18543;50.848;4.596;2023-04-02T12:52:24;0.90;;;0.90;;
32026;SDS011;18543;50.848;4.596;2023-04-02T12:57:31;1.00;;;1.00;;
32026;SDS011;18543;50.848;4.596;2023-04-02T13:00:27;1.90;;;1.10;;
32026;SDS011;18543;50.848;4.596;2023-04-02T13:02:48;0.98;;;0.98;;
32026;SDS011;18543;50.848;4.596;2023-04-02T13:08:04;1.02;;;0.93;;
32026;SDS011;18543;50.848;4.596;2023-04-02T13:10:32;1.00;;;1.00;;
32026;SDS011;18543;50.848;4.596;2023-04-02T13:13:00;1.40;;;1.10;;
32026;SDS011;18543;50.848;4.596;2023-04-02T13:15:29;1.10;;;1.00;;
32026;SDS011;18543;50.848;4.596;2023-04-02T13:22:58;1.20;;;1.10;;
32026;SDS011;18543;50.848;4.596;2023-04-02T13:27:53;1.30;;;1.20;;
32026;SDS011;18543;50.848;4.596;2023-04-02T13:30:22;0.98;;;0.90;;
32026;SDS011;18543;50.848;4.596;2023-04-02T13:32:50;1.00;;;1.00;;
32026;SDS011;18543;50.848;4.596;2023-04-02T13:35:17;1.40;;;1.10;;
32026;SDS011;18543;50.848;4.596;2023-04-02T13:37:44;1.10;;;1.00;;
32026;SDS011;18543;50.848;4.596;2023-04-02T13:40:15;0.90;;;0.90;;
32026;SDS011;18543;50.848;4.596;2023-04-02T13:42:44;1.73;;;1.15;;
32026;SDS011;18543;50.848;4.596;2023-04-02T13:45:24;1.35;;;1.20;;
32026;SDS011;18543;50.848;4.596;2023-04-02T13:47:52;1.10;;;1.00;;
32026;SDS011;18543;50.848;4.596;2023-04-02T13:50:22;1.00;;;1.00;;
32026;SDS011;18543;50.848;4.596;2023-04-02T13:52:50;1.20;;;1.00;;
32026;SDS011;18543;50.848;4.596;2023-04-02T13:55:18;1.27;;;1.08;;
32026;SDS011;18543;50.848;4.596;2023-04-02T13:57:46;1.17;;;1.00;;
32026;SDS011;18543;50.848;4.596;2023-04-02T14:00:15;1.13;;;1.02;;
32026;SDS011;18543;50.848;4.596;2023-04-02T14:02:44;1.20;;;1.10;;
32026;SDS011;18543;50.848;4.596;2023-04-02T14:05:21;1.52;;;1.10;;
32026;SDS011;18543;50.848;4.596;2023-04-02T14:18:18;1.02;;;1.00;;
32026;SDS011;18543;50.848;4.596;2023-04-02T14:31:18;1.25;;;1.13;;
32026;SDS011;18543;50.848;4.596;2023-04-02T14:39:12;2.03;;;1.10;;
32026;SDS011;18543;50.848;4.596;2023-04-02T14:44:27;0.80;;;0.80;;
32026;SDS011;18543;50.848;4.596;2023-04-02T14:47:16;1.00;;;1.00;;
32026;SDS011;18543;50.848;4.596;2023-04-02T14:49:44;1.10;;;1.00;;
32026;SDS011;18543;50.848;4.596;2023-04-02T14:52:16;1.10;;;1.00;;
32026;SDS011;18543;50.848;4.596;2023-04-02T14:57:42;1.27;;;1.10;;
32026;SDS011;18543;50.848;4.596;2023-04-02T15:02:58;1.08;;;0.98;;
32026;SDS011;18543;50.848;4.596;2023-04-02T15:08:21;0.90;;;0.90;;
32026;SDS011;18543;50.848;4.596;2023-04-02T15:11:11;1.02;;;1.00;;
32026;SDS011;18543;50.848;4.596;2023-04-02T15:13:45;1.27;;;1.13;;
32026;SDS011;18543;50.848;4.596;2023-04-02T15:16:22;1.27;;;1.10;;
32026;SDS011;18543;50.848;4.596;2023-04-02T15:18:53;1.23;;;1.13;;
32026;SDS011;18543;50.848;4.596;2023-04-02T15:35:00;0.80;;;0.80;;
32026;SDS011;18543;50.848;4.596;2023-04-02T15:37:36;0.90;;;0.90;;
32026;SDS011;18543;50.848;4.596;2023-04-02T15:43:28;1.27;;;1.10;;
32026;SDS011;18543;50.848;4.596;2023-04-02T15:45:47;1.15;;;1.05;;
32026;SDS011;18543;50.848;4.596;2023-04-02T16:05:07;1.10;;;1.00;;
32026;SDS011;18543;50.848;4.596;2023-04-02T16:10:48;2.00;;;1.10;;
32026;SDS011;18543;50.848;4.596;2023-04-02T16:15:46;1.20;;;1.10;;
32026;SDS011;18543;50.848;4.596;2023-04-02T16:18:17;1.25;;;1.05;;
32026;SDS011;18543;50.848;4.596;2023-04-02T16:20:48;1.17;;;1.10;;
32026;SDS011;18543;50.848;4.596;2023-04-02T16:23:18;1.33;;;1.23;;
32026;SDS011;18543;50.848;4.596;2023-04-02T16:25:52;1.10;;;1.00;;
32026;SDS011;18543;50.848;4.596;2023-04-02T16:28:23;1.42;;;1.10;;
32026;SDS011;18543;50.848;4.596;2023-04-02T16:41:32;0.95;;;0.95;;
32026;SDS011;18543;50.848;4.596;2023-04-02T16:46:41;1.23;;;1.10;;
32026;SDS011;18543;50.848;4.596;2023-04-02T16:49:19;1.20;;;1.10;;
32026;SDS011;18543;50.848;4.596;2023-04-02T16:52:00;1.10;;;1.00;;
32026;SDS011;18543;50.848;4.596;2023-04-02T16:54:31;1.10;;;1.00;;
32026;SDS011;18543;50.848;4.596;2023-04-02T16:59:47;0.90;;;0.90;;
32026;SDS011;18543;50.848;4.596;2023-04-02T17:12:31;1.03;;;0.93;;
32026;SDS011;18543;50.848;4.596;2023-04-02T17:15:02;1.17;;;1.00;;
32026;SDS011;18543;50.848;4.596;2023-04-02T17:17:39;1.13;;;1.00;;
32026;SDS011;18543;50.848;4.596;2023-04-02T17:20:11;1.20;;;1.15;;
32026;SDS011;18543;50.848;4.596;2023-04-02T17:22:40;1.20;;;1.10;;
32026;SDS011;18543;50.848;4.596;2023-04-02T17:25:11;1.13;;;1.03;;
32026;SDS011;18543;50.848;4.596;2023-04-02T17:27:42;1.00;;;0.90;;
32026;SDS011;18543;50.848;4.596;2023-04-02T17:30:12;1.00;;;1.00;;
32026;SDS011;18543;50.848;4.596;2023-04-02T17:32:42;1.10;;;1.00;;
32026;SDS011;18543;50.848;4.596;2023-04-02T17:38:00;1.27;;;1.17;;
32026;SDS011;18543;50.848;4.596;2023-04-02T17:40:53;1.08;;;1.08;;
32026;SDS011;18543;50.848;4.596;2023-04-02T17:45:52;1.08;;;1.00;;
32026;SDS011;18543;50.848;4.596;2023-04-02T17:49:23;1.13;;;1.00;;
32026;SDS011;18543;50.848;4.596;2023-04-02T18:09:49;1.15;;;1.08;;
32026;SDS011;18543;50.848;4.596;2023-04-02T18:12:22;1.55;;;1.10;;
32026;SDS011;18543;50.848;4.596;2023-04-02T18:17:26;1.20;;;1.10;;
32026;SDS011;18543;50.848;4.596;2023-04-02T18:30:35;1.30;;;1.20;;
32026;SDS011;18543;50.848;4.596;2023-04-02T18:33:15;1.10;;;1.02;;
32026;SDS011;18543;50.848;4.596;2023-04-02T18:35:52;1.30;;;1.20;;
32026;SDS011;18543;50.848;4.596;2023-04-02T18:38:25;1.38;;;1.27;;
32026;SDS011;18543;50.848;4.596;2023-04-02T18:40:58;1.25;;;1.15;;
32026;SDS011;18543;50.848;4.596;2023-04-02T18:46:03;1.42;;;1.33;;
32026;SDS011;18543;50.848;4.596;2023-04-02T18:50:59;1.47;;;1.30;;
32026;SDS011;18543;50.848;4.596;2023-04-02T18:53:27;1.30;;;1.20;;
32026;SDS011;18543;50.848;4.596;2023-04-02T18:58:27;0.90;;;0.90;;
32026;SDS011;18543;50.848;4.596;2023-04-02T19:00:58;1.20;;;1.10;;
32026;SDS011;18543;50.848;4.596;2023-04-02T19:03:28;1.80;;;1.30;;
32026;SDS011;18543;50.848;4.596;2023-04-02T19:06:04;1.63;;;1.33;;
32026;SDS011;18543;50.848;4.596;2023-04-02T19:08:46;1.38;;;1.27;;
32026;SDS011;18543;50.848;4.596;2023-04-02T19:11:15;1.08;;;1.05;;
32026;SDS011;18543;50.848;4.596;2023-04-02T19:13:43;1.10;;;1.10;;
32026;SDS011;18543;50.848;4.596;2023-04-02T19:22:00;1.43;;;1.20;;
32026;SDS011;18543;50.848;4.596;2023-04-02T19:26:29;1.40;;;1.10;;
32026;SDS011;18543;50.848;4.596;2023-04-02T19:36:50;1.30;;;1.20;;
32026;SDS011;18543;50.848;4.596;2023-04-02T19:39:36;1.50;;;1.40;;
32026;SDS011;18543;50.848;4.596;2023-04-02T19:44:34;1.38;;;1.25;;
32026;SDS011;18543;50.848;4.596;2023-04-02T19:47:02;1.70;;;1.30;;
32026;SDS011;18543;50.848;4.596;2023-04-02T19:49:31;1.25;;;1.15;;
32026;SDS011;18543;50.848;4.596;2023-04-02T19:51:59;1.30;;;1.20;;
32026;SDS011;18543;50.848;4.596;2023-04-02T19:54:26;1.30;;;1.20;;
32026;SDS011;18543;50.848;4.596;2023-04-02T19:56:54;1.37;;;1.17;;
32026;SDS011;18543;50.848;4.596;2023-04-02T19:59:21;1.30;;;1.20;;
32026;SDS011;18543;50.848;4.596;2023-04-02T20:01:48;1.40;;;1.30;;
32026;SDS011;18543;50.848;4.596;2023-04-02T20:04:15;1.70;;;1.40;;
32026;SDS011;18543;50.848;4.596;2023-04-02T20:06:43;1.30;;;1.20;;
32026;SDS011;18543;50.848;4.596;2023-04-02T20:09:10;1.40;;;1.30;;
32026;SDS011;18543;50.848;4.596;2023-04-02T20:11:37;1.30;;;1.20;;
32026;SDS011;18543;50.848;4.596;2023-04-02T20:14:05;1.30;;;1.20;;
32026;SDS011;18543;50.848;4.596;2023-04-02T20:16:32;1.75;;;1.27;;
32026;SDS011;18543;50.848;4.596;2023-04-02T20:19:02;1.42;;;1.33;;
32026;SDS011;18543;50.848;4.596;2023-04-02T20:21:29;1.35;;;1.25;;
32026;SDS011;18543;50.848;4.596;2023-04-02T20:24:04;1.45;;;1.35;;
32026;SDS011;18543;50.848;4.596;2023-04-02T20:29:03;1.40;;;1.30;;
32026;SDS011;18543;50.848;4.596;2023-04-02T20:31:31;1.77;;;1.52;;
32026;SDS011;18543;50.848;4.596;2023-04-02T20:33:58;1.10;;;1.10;;
32026;SDS011;18543;50.848;4.596;2023-04-02T20:36:27;1.30;;;1.20;;
32026;SDS011;18543;50.848;4.596;2023-04-02T20:38:55;1.38;;;1.27;;
32026;SDS011;18543;50.848;4.596;2023-04-02T20:41:22;1.30;;;1.20;;
32026;SDS011;18543;50.848;4.596;2023-04-02T20:43:49;1.30;;;1.20;;
32026;SDS011;18543;50.848;4.596;2023-04-02T20:46:17;1.73;;;1.50;;
32026;SDS011;18543;50.848;4.596;2023-04-02T20:48:45;1.70;;;1.35;;
32026;SDS011;18543;50.848;4.596;2023-04-02T20:51:13;1.65;;;1.55;;
32026;SDS011;18543;50.848;4.596;2023-04-02T20:53:40;1.85;;;1.50;;
32026;SDS011;18543;50.848;4.596;2023-04-02T20:56:11;1.60;;;1.50;;